createdAt,value
2023-01-26T00:00:15.783Z,17.60
2023-01-26T00:02:44.705Z,17.60
2023-01-26T00:05:13.341Z,17.70
2023-01-26T00:07:46.204Z,17.60
2023-01-26T00:10:15.979Z,17.70
2023-01-26T00:12:44.609Z,17.60
2023-01-26T00:15:13.494Z,17.60
2023-01-26T00:17:42.206Z,17.60
2023-01-26T00:20:11.925Z,17.60
2023-01-26T00:22:40.894Z,17.60
2023-01-26T00:25:10.225Z,17.60
2023-01-26T00:27:39.014Z,17.60
2023-01-26T00:30:08.238Z,17.60
2023-01-26T00:32:37.720Z,17.60
2023-01-26T00:35:07.485Z,17.60
2023-01-26T00:37:36.397Z,17.60
2023-01-26T00:40:05.206Z,17.70
2023-01-26T00:42:33.921Z,17.70
2023-01-26T00:45:02.660Z,17.70
2023-01-26T00:47:31.341Z,17.70
2023-01-26T00:50:00.000Z,17.80
2023-01-26T00:52:28.747Z,17.80
2023-01-26T00:54:57.398Z,17.90
2023-01-26T00:57:26.140Z,17.90
2023-01-26T00:59:54.843Z,18.00
2023-01-26T01:02:23.493Z,18.00
2023-01-26T01:04:52.269Z,18.00
2023-01-26T01:07:20.977Z,18.00
2023-01-26T01:09:49.631Z,18.10
2023-01-26T01:12:18.378Z,18.10
2023-01-26T01:14:47.011Z,18.20
2023-01-26T01:17:15.835Z,18.30
2023-01-26T01:19:44.584Z,18.30
2023-01-26T01:22:13.308Z,18.40
2023-01-26T01:24:42.040Z,18.50
2023-01-26T01:27:10.695Z,18.50
2023-01-26T01:29:39.491Z,18.60
2023-01-26T01:32:08.289Z,18.60
2023-01-26T01:34:37.078Z,18.60
2023-01-26T01:37:05.996Z,18.70
2023-01-26T01:39:34.650Z,18.70
2023-01-26T01:42:03.372Z,18.70
2023-01-26T01:44:32.225Z,18.80
2023-01-26T01:47:07.920Z,18.80
2023-01-26T01:49:41.410Z,18.80
2023-01-26T01:52:12.462Z,18.90
2023-01-26T01:54:45.781Z,18.90
2023-01-26T01:57:28.761Z,19.00
2023-01-26T02:00:06.624Z,19.00
2023-01-26T02:02:35.734Z,19.00
2023-01-26T02:05:18.745Z,19.10
2023-01-26T02:07:52.224Z,19.10
2023-01-26T02:10:22.451Z,19.20
2023-01-26T02:12:54.898Z,19.20
2023-01-26T02:15:23.786Z,19.30
2023-01-26T02:17:55.041Z,19.40
2023-01-26T02:20:38.290Z,19.40
2023-01-26T02:23:13.724Z,19.50
2023-01-26T02:25:52.995Z,19.60
2023-01-26T02:28:25.767Z,19.60
2023-01-26T02:30:57.452Z,19.60
2023-01-26T02:33:29.318Z,19.70
2023-01-26T02:35:58.182Z,19.80
2023-01-26T02:38:32.072Z,19.80
2023-01-26T02:41:06.988Z,19.80
2023-01-26T02:43:36.230Z,19.90
2023-01-26T02:46:05.119Z,19.90
2023-01-26T02:48:54.310Z,20.00
2023-01-26T02:51:23.060Z,20.10
2023-01-26T02:53:51.819Z,20.20
2023-01-26T02:56:20.498Z,20.30
2023-01-26T02:58:49.129Z,20.30
2023-01-26T03:01:17.871Z,20.40
2023-01-26T03:03:46.665Z,20.50
2023-01-26T03:06:16.289Z,20.50
2023-01-26T03:08:45.037Z,20.60
2023-01-26T03:11:13.748Z,20.70
2023-01-26T03:13:42.398Z,20.70
2023-01-26T03:16:12.889Z,20.80
2023-01-26T03:19:01.155Z,20.80
2023-01-26T03:21:49.414Z,20.90
2023-01-26T03:24:37.850Z,21.00
2023-01-26T03:27:27.286Z,21.10
2023-01-26T03:29:57.456Z,21.10
2023-01-26T03:32:27.014Z,21.20
2023-01-26T03:34:56.950Z,21.30
2023-01-26T03:37:25.744Z,21.30
2023-01-26T03:40:14.172Z,21.30
2023-01-26T03:43:02.440Z,21.40
2023-01-26T03:45:51.612Z,21.50
2023-01-26T03:48:39.884Z,21.50
2023-01-26T03:51:28.158Z,21.60
2023-01-26T03:54:16.763Z,21.70
2023-01-26T03:56:45.569Z,21.80
2023-01-26T03:59:16.279Z,21.80
2023-01-26T04:02:07.130Z,21.90
2023-01-26T04:04:55.587Z,22.00
2023-01-26T04:07:43.774Z,22.00
2023-01-26T04:10:12.937Z,22.10
2023-01-26T04:12:42.289Z,22.20
2023-01-26T04:15:30.965Z,22.20
2023-01-26T04:18:19.301Z,22.30
2023-01-26T04:21:07.798Z,22.40
2023-01-26T04:23:39.555Z,22.40
2023-01-26T04:26:08.214Z,22.50
2023-01-26T04:28:36.988Z,22.50
2023-01-26T04:31:05.850Z,22.60
2023-01-26T04:33:34.723Z,22.60
2023-01-26T04:36:06.659Z,22.70
2023-01-26T04:38:35.702Z,22.80
2023-01-26T04:41:04.412Z,22.80
2023-01-26T04:43:33.121Z,22.90
2023-01-26T04:46:05.502Z,22.90
2023-01-26T04:48:35.295Z,23.00
2023-01-26T04:51:06.916Z,23.00
2023-01-26T04:53:36.169Z,23.10
2023-01-26T04:56:04.992Z,23.10
2023-01-26T04:58:34.791Z,23.20
2023-01-26T05:01:03.416Z,23.20
2023-01-26T05:03:32.179Z,23.20
2023-01-26T05:06:01.873Z,23.30
2023-01-26T05:08:30.503Z,23.30
2023-01-26T05:10:59.773Z,23.30
2023-01-26T05:13:28.511Z,23.40
2023-01-26T05:15:57.228Z,23.50
2023-01-26T05:18:26.043Z,23.50
2023-01-26T05:20:54.717Z,23.50
2023-01-26T05:23:23.615Z,23.60
2023-01-26T05:25:52.583Z,23.60
2023-01-26T05:28:21.176Z,23.60
2023-01-26T05:30:50.171Z,23.70
2023-01-26T05:33:23.112Z,23.70
2023-01-26T05:35:52.967Z,23.70
2023-01-26T05:38:22.263Z,23.70
2023-01-26T05:40:50.969Z,23.70
2023-01-26T05:43:19.608Z,23.80
2023-01-26T05:45:48.375Z,23.80
2023-01-26T05:48:17.195Z,23.80
2023-01-26T05:50:46.618Z,23.80
2023-01-26T05:53:16.189Z,23.90
2023-01-26T05:55:45.411Z,23.90
2023-01-26T05:58:14.199Z,23.90
2023-01-26T06:00:43.023Z,24.00
2023-01-26T06:03:11.793Z,24.10
2023-01-26T06:05:40.564Z,24.10
2023-01-26T06:08:09.372Z,24.20
2023-01-26T06:10:38.187Z,24.20
2023-01-26T06:13:07.078Z,24.30
2023-01-26T06:15:40.027Z,24.30
2023-01-26T06:18:08.410Z,24.40
2023-01-26T06:20:37.072Z,24.40
2023-01-26T06:23:06.655Z,24.40
2023-01-26T06:25:35.398Z,24.50
2023-01-26T06:28:04.886Z,24.50
2023-01-26T06:30:35.572Z,24.50
2023-01-26T06:33:04.435Z,24.60
2023-01-26T06:35:33.024Z,24.60
2023-01-26T06:38:02.829Z,24.70
2023-01-26T06:40:31.653Z,24.70
2023-01-26T06:43:00.357Z,24.80
2023-01-26T06:45:29.522Z,24.80
2023-01-26T06:47:58.321Z,24.80
2023-01-26T06:50:32.990Z,24.90
2023-01-26T06:53:04.452Z,24.80
2023-01-26T06:55:42.827Z,24.90
2023-01-26T06:58:13.397Z,24.80
2023-01-26T07:00:42.098Z,24.90
2023-01-26T07:03:12.829Z,24.80
2023-01-26T07:05:41.593Z,24.80
2023-01-26T07:08:10.392Z,24.90
2023-01-26T07:10:39.810Z,24.90
2023-01-26T07:13:08.958Z,24.90
2023-01-26T07:15:37.749Z,25.00
2023-01-26T07:18:07.192Z,25.00
2023-01-26T07:20:35.829Z,25.00
2023-01-26T07:23:04.474Z,25.00
2023-01-26T07:25:33.147Z,25.00
2023-01-26T07:28:02.213Z,25.00
2023-01-26T07:30:31.036Z,25.00
2023-01-26T07:33:01.990Z,25.10
2023-01-26T07:35:31.004Z,25.10
2023-01-26T07:37:59.971Z,25.20
2023-01-26T07:40:28.565Z,25.20
2023-01-26T07:42:58.231Z,25.20
2023-01-26T07:45:27.212Z,25.30
2023-01-26T07:47:57.666Z,25.30
2023-01-26T07:50:28.003Z,25.30
2023-01-26T07:52:56.668Z,25.40
2023-01-26T07:55:27.303Z,25.40
2023-01-26T07:57:55.991Z,25.50
2023-01-26T08:00:24.786Z,25.50
2023-01-26T08:02:53.768Z,25.60
2023-01-26T08:05:22.619Z,25.60
2023-01-26T08:07:51.361Z,25.60
2023-01-26T08:10:20.267Z,25.60
2023-01-26T08:12:48.867Z,25.60
2023-01-26T08:15:17.603Z,25.60
2023-01-26T08:17:46.437Z,25.60
2023-01-26T08:20:15.143Z,25.60
2023-01-26T08:22:43.910Z,25.60
2023-01-26T08:25:12.668Z,25.60
2023-01-26T08:27:41.337Z,25.60
2023-01-26T08:30:11.108Z,25.60
2023-01-26T08:32:40.319Z,25.60
2023-01-26T08:35:12.006Z,25.70
2023-01-26T08:37:40.822Z,25.60
2023-01-26T08:40:10.547Z,25.70
2023-01-26T08:42:39.379Z,25.70
2023-01-26T08:45:09.067Z,25.70
2023-01-26T08:47:37.802Z,25.80
2023-01-26T08:50:06.894Z,25.80
2023-01-26T08:52:35.722Z,25.80
2023-01-26T08:55:05.691Z,25.90
2023-01-26T08:57:34.457Z,25.90
2023-01-26T09:00:03.257Z,25.90
2023-01-26T09:02:32.071Z,25.90
2023-01-26T09:05:00.884Z,25.90
2023-01-26T09:07:29.578Z,25.80
2023-01-26T09:09:58.320Z,25.80
2023-01-26T09:12:27.028Z,25.80
2023-01-26T09:14:55.736Z,25.80
2023-01-26T09:17:24.496Z,25.80
2023-01-26T09:19:53.203Z,25.80
2023-01-26T09:22:21.905Z,25.80
2023-01-26T09:24:50.828Z,25.80
2023-01-26T09:27:19.513Z,25.80
2023-01-26T09:29:48.251Z,25.80
2023-01-26T09:32:17.081Z,25.70
2023-01-26T09:34:46.203Z,25.70
2023-01-26T09:37:17.017Z,25.60
2023-01-26T09:39:46.077Z,25.60
2023-01-26T09:42:34.904Z,25.70
2023-01-26T09:45:05.506Z,25.70
2023-01-26T09:48:10.551Z,25.60
2023-01-26T09:51:04.690Z,25.60
2023-01-26T09:53:58.631Z,25.60
2023-01-26T09:56:30.760Z,25.50
2023-01-26T09:59:19.557Z,25.40
2023-01-26T10:02:03.148Z,25.40
2023-01-26T10:04:38.521Z,25.40
2023-01-26T10:07:14.666Z,25.30
2023-01-26T10:09:47.486Z,25.30
2023-01-26T10:12:19.238Z,25.30
2023-01-26T10:14:57.209Z,25.20
2023-01-26T10:17:39.596Z,25.20
2023-01-26T10:20:38.823Z,25.20
2023-01-26T10:23:24.400Z,25.10
2023-01-26T10:25:55.196Z,25.00
2023-01-26T10:28:39.504Z,25.00
2023-01-26T10:31:15.481Z,25.00
2023-01-26T10:33:53.753Z,24.90
2023-01-26T10:36:23.255Z,24.90
2023-01-26T10:38:53.550Z,24.80
2023-01-26T10:41:25.951Z,24.70
2023-01-26T10:43:58.405Z,24.80
2023-01-26T10:46:39.910Z,24.70
2023-01-26T10:49:13.261Z,24.60
2023-01-26T10:51:46.785Z,24.50
2023-01-26T10:54:30.741Z,24.50
2023-01-26T10:57:03.471Z,24.40
2023-01-26T10:59:40.055Z,24.30
2023-01-26T11:02:28.896Z,24.20
2023-01-26T11:05:14.428Z,24.20
2023-01-26T11:07:46.869Z,24.10
2023-01-26T11:10:33.905Z,24.10
2023-01-26T11:13:14.919Z,24.00
2023-01-26T11:15:46.699Z,24.00
2023-01-26T11:18:54.073Z,23.90
2023-01-26T11:21:34.718Z,23.80
2023-01-26T11:24:22.032Z,23.80
2023-01-26T11:27:10.920Z,23.80
2023-01-26T11:30:03.125Z,23.70
2023-01-26T11:32:45.695Z,23.70
2023-01-26T11:35:34.466Z,23.60
2023-01-26T11:38:23.978Z,23.60
2023-01-26T11:41:20.400Z,23.50
2023-01-26T11:44:07.046Z,23.50
2023-01-26T11:46:42.507Z,23.40
2023-01-26T11:49:46.813Z,23.40
2023-01-26T11:52:18.403Z,23.40
2023-01-26T11:55:06.874Z,23.30
2023-01-26T11:57:41.071Z,23.30
2023-01-26T12:00:30.098Z,23.20
2023-01-26T12:03:05.424Z,23.20
2023-01-26T12:05:45.803Z,23.20
2023-01-26T12:08:16.427Z,23.20
2023-01-26T12:11:27.247Z,23.20
2023-01-26T12:14:16.008Z,23.20
2023-01-26T12:16:51.060Z,23.10
2023-01-26T12:19:39.184Z,23.10
2023-01-26T12:22:34.149Z,23.10
2023-01-26T12:25:23.140Z,23.10
2023-01-26T12:28:04.265Z,23.10
2023-01-26T12:30:50.197Z,23.10
2023-01-26T12:33:19.323Z,23.00
2023-01-26T12:36:13.690Z,23.00
2023-01-26T12:38:50.800Z,23.00
2023-01-26T12:41:43.003Z,23.00
2023-01-26T12:44:39.981Z,23.00
2023-01-26T12:47:14.205Z,23.00
2023-01-26T12:49:52.902Z,23.00
2023-01-26T12:52:42.654Z,23.00
2023-01-26T12:55:22.483Z,23.00
2023-01-26T12:58:02.338Z,23.00
2023-01-26T13:00:34.099Z,22.90
2023-01-26T13:03:15.158Z,22.90
2023-01-26T13:06:20.192Z,22.90
2023-01-26T13:09:05.501Z,22.80
2023-01-26T13:11:44.105Z,22.80
2023-01-26T13:14:32.913Z,22.70
2023-01-26T13:17:26.685Z,22.70
2023-01-26T13:20:00.803Z,22.60
2023-01-26T13:22:31.629Z,22.60
2023-01-26T13:25:13.495Z,22.60
2023-01-26T13:30:34.202Z,22.50
2023-01-26T13:33:22.655Z,22.50
2023-01-26T13:35:54.863Z,22.50
2023-01-26T13:38:54.138Z,22.50
2023-01-26T13:44:24.928Z,22.40
2023-01-26T13:47:02.113Z,22.40
2023-01-26T13:49:46.351Z,22.40
2023-01-26T13:52:19.555Z,22.40
2023-01-26T13:54:55.712Z,22.30
2023-01-26T13:57:45.030Z,22.30
2023-01-26T14:00:14.738Z,22.30
2023-01-26T14:02:50.903Z,22.30
2023-01-26T14:05:25.293Z,22.30
2023-01-26T14:07:54.308Z,22.30
2023-01-26T14:10:25.085Z,22.20
2023-01-26T14:12:59.082Z,22.20
2023-01-26T14:15:34.757Z,22.20
2023-01-26T14:18:09.958Z,22.20
2023-01-26T14:20:40.876Z,22.20
2023-01-26T14:23:11.665Z,22.10
2023-01-26T14:25:42.857Z,22.10
2023-01-26T14:28:22.340Z,22.10
2023-01-26T14:31:02.546Z,22.10
2023-01-26T14:33:32.153Z,22.10
2023-01-26T14:36:04.184Z,22.10
2023-01-26T14:41:29.543Z,22.10
2023-01-26T14:44:02.918Z,22.10
2023-01-26T14:46:40.129Z,22.00
2023-01-26T14:49:14.557Z,22.00
2023-01-26T14:51:46.583Z,22.00
2023-01-26T14:54:33.742Z,21.90
2023-01-26T14:57:03.112Z,21.90
2023-01-26T14:59:40.584Z,21.90
2023-01-26T15:02:16.674Z,21.80
2023-01-26T15:04:52.603Z,21.90
2023-01-26T15:07:45.016Z,21.90
2023-01-26T15:10:35.146Z,21.80
2023-01-26T15:13:08.757Z,21.80
2023-01-26T15:15:40.373Z,21.80
2023-01-26T15:18:19.980Z,21.80
2023-01-26T15:21:01.139Z,21.70
2023-01-26T15:23:30.835Z,21.70
2023-01-26T15:26:08.117Z,21.60
2023-01-26T15:28:38.365Z,21.60
2023-01-26T15:31:07.700Z,21.60
2023-01-26T15:33:45.966Z,21.60
2023-01-26T15:36:32.084Z,21.50
2023-01-26T15:39:19.707Z,21.50
2023-01-26T15:42:09.119Z,21.50
2023-01-26T15:44:38.026Z,21.40
2023-01-26T15:47:09.938Z,21.40
2023-01-26T15:49:39.247Z,21.40
2023-01-26T15:52:17.567Z,21.40
2023-01-26T15:54:46.631Z,21.30
2023-01-26T15:57:15.880Z,21.30
2023-01-26T15:59:44.962Z,21.30
2023-01-26T16:02:19.807Z,21.30
2023-01-26T16:04:49.305Z,21.30
2023-01-26T16:07:19.737Z,21.30
2023-01-26T16:09:50.360Z,21.30
2023-01-26T16:12:31.874Z,21.20
2023-01-26T16:15:02.132Z,21.10
2023-01-26T16:17:32.089Z,20.90
2023-01-26T16:20:01.333Z,20.70
2023-01-26T16:22:30.251Z,20.60
2023-01-26T16:24:59.010Z,20.60
2023-01-26T16:27:27.757Z,20.60
2023-01-26T16:29:56.535Z,20.60
2023-01-26T16:32:30.404Z,20.60
2023-01-26T16:34:59.287Z,20.70
2023-01-26T16:37:27.880Z,20.70
2023-01-26T16:39:56.738Z,20.70
2023-01-26T16:42:25.647Z,20.70
2023-01-26T16:44:54.428Z,20.80
2023-01-26T16:47:23.199Z,20.80
2023-01-26T16:49:52.015Z,20.80
2023-01-26T16:52:20.751Z,20.80
2023-01-26T16:54:51.143Z,20.90
2023-01-26T16:57:19.934Z,20.90
2023-01-26T17:03:37.326Z,20.90
2023-01-26T17:06:06.703Z,20.90
2023-01-26T17:08:35.508Z,21.00
2023-01-26T17:11:04.266Z,21.00
2023-01-26T17:13:33.564Z,21.00
2023-01-26T17:16:02.362Z,21.00
2023-01-26T17:18:34.571Z,21.00
2023-01-26T17:21:04.796Z,21.00
2023-01-26T17:23:33.557Z,21.00
2023-01-26T17:26:02.820Z,21.00
2023-01-26T17:28:31.744Z,21.00
2023-01-26T17:31:01.555Z,21.00
2023-01-26T17:33:31.124Z,21.10
2023-01-26T17:36:03.455Z,21.10
2023-01-26T17:38:32.385Z,21.10
2023-01-26T17:41:01.512Z,21.10
2023-01-26T17:43:31.201Z,21.10
2023-01-26T17:46:11.497Z,21.10
2023-01-26T17:48:41.102Z,21.00
2023-01-26T17:51:13.533Z,21.00
2023-01-26T17:53:43.751Z,21.00
2023-01-26T17:56:15.451Z,21.00
2023-01-26T17:58:44.334Z,21.00
2023-01-26T18:01:13.288Z,20.90
2023-01-26T18:03:43.749Z,20.90
2023-01-26T18:06:13.167Z,20.90
2023-01-26T18:08:42.302Z,20.90
2023-01-26T18:11:14.154Z,20.80
2023-01-26T18:13:42.969Z,20.80
2023-01-26T18:16:18.445Z,20.80
2023-01-26T18:18:48.284Z,20.80
2023-01-26T18:21:21.503Z,20.80
2023-01-26T18:23:52.852Z,20.80
2023-01-26T18:26:24.432Z,20.80
2023-01-26T18:28:53.883Z,20.80
2023-01-26T18:31:24.583Z,20.80
2023-01-26T18:33:53.831Z,20.80
2023-01-26T18:36:23.054Z,20.70
2023-01-26T18:38:55.595Z,20.70
2023-01-26T18:41:25.666Z,20.70
2023-01-26T18:43:58.735Z,20.70
2023-01-26T18:46:28.042Z,20.70
2023-01-26T18:49:02.516Z,20.60
2023-01-26T18:51:33.631Z,20.60
2023-01-26T18:54:03.124Z,20.60
2023-01-26T18:56:32.517Z,20.50
2023-01-26T18:59:01.179Z,20.50
2023-01-26T19:01:30.037Z,20.50
2023-01-26T19:03:59.907Z,20.50
2023-01-26T19:06:29.904Z,20.40
2023-01-26T19:09:02.014Z,20.40
2023-01-26T19:11:33.023Z,20.40
2023-01-26T19:14:03.001Z,20.40
2023-01-26T19:16:32.121Z,20.40
2023-01-26T19:19:01.247Z,20.40
2023-01-26T19:21:31.357Z,20.40
2023-01-26T19:24:06.571Z,20.30
2023-01-26T19:26:36.078Z,20.30
2023-01-26T19:29:05.148Z,20.30
2023-01-26T19:31:34.123Z,20.30
2023-01-26T19:34:05.999Z,20.30
2023-01-26T19:36:37.269Z,20.30
2023-01-26T19:39:07.573Z,20.30
2023-01-26T19:41:36.511Z,20.30
2023-01-26T19:44:05.496Z,20.20
2023-01-26T19:46:34.511Z,20.20
2023-01-26T19:49:03.268Z,20.20
2023-01-26T19:51:32.383Z,20.20
2023-01-26T19:54:01.596Z,20.20
2023-01-26T19:56:33.530Z,20.20
2023-01-26T19:59:05.502Z,20.20
2023-01-26T20:01:35.042Z,20.20
2023-01-26T20:04:07.883Z,20.20
2023-01-26T20:06:38.004Z,20.10
2023-01-26T20:09:08.622Z,20.10
2023-01-26T20:11:37.557Z,20.10
2023-01-26T20:14:09.952Z,20.10
2023-01-26T20:16:39.139Z,20.10
2023-01-26T20:19:07.863Z,20.10
2023-01-26T20:21:36.766Z,20.10
2023-01-26T20:24:06.818Z,20.10
2023-01-26T20:26:37.002Z,20.00
2023-01-26T20:29:07.267Z,20.00
2023-01-26T20:31:36.073Z,20.00
2023-01-26T20:34:04.838Z,20.00
2023-01-26T20:36:35.404Z,20.00
2023-01-26T20:39:05.503Z,20.00
2023-01-26T20:41:34.791Z,20.00
2023-01-26T20:44:06.358Z,19.90
2023-01-26T20:46:38.789Z,20.00
2023-01-26T20:49:11.345Z,19.90
2023-01-26T20:51:43.432Z,19.90
2023-01-26T20:54:15.662Z,19.90
2023-01-26T20:56:46.796Z,19.90
2023-01-26T20:59:15.623Z,19.90
2023-01-26T21:01:44.454Z,19.90
2023-01-26T21:04:13.131Z,19.90
2023-01-26T21:09:24.731Z,19.90
2023-01-26T21:12:07.866Z,19.90
2023-01-26T21:14:36.816Z,19.90
2023-01-26T21:17:40.314Z,19.90
2023-01-26T21:20:09.918Z,19.90
2023-01-26T21:22:38.725Z,19.90
2023-01-26T21:25:07.836Z,19.90
2023-01-26T21:27:36.472Z,20.00
2023-01-26T21:30:06.338Z,20.00
2023-01-26T21:32:35.171Z,20.00
2023-01-26T21:35:03.821Z,20.00
2023-01-26T21:37:32.604Z,19.90
2023-01-26T21:40:01.330Z,20.00
2023-01-26T21:42:29.979Z,19.90
2023-01-26T21:45:18.415Z,20.00
2023-01-26T21:48:06.716Z,20.00
2023-01-26T21:50:56.063Z,19.90
2023-01-26T21:53:24.810Z,20.00
2023-01-26T21:55:53.549Z,19.90
2023-01-26T21:58:41.973Z,19.90
2023-01-26T22:01:13.908Z,19.90
2023-01-26T22:03:42.925Z,19.90
2023-01-26T22:06:11.711Z,19.90
2023-01-26T22:08:40.427Z,19.90
2023-01-26T22:11:09.141Z,19.80
2023-01-26T22:13:38.607Z,19.80
2023-01-26T22:16:07.673Z,19.80
2023-01-26T22:18:37.171Z,19.70
2023-01-26T22:21:06.614Z,19.70
2023-01-26T22:23:37.314Z,19.60
2023-01-26T22:26:09.889Z,19.60
2023-01-26T22:28:38.654Z,19.60
2023-01-26T22:31:08.808Z,19.60
2023-01-26T22:33:38.331Z,19.50
2023-01-26T22:36:09.430Z,19.50
2023-01-26T22:38:39.031Z,19.50
2023-01-26T22:41:08.819Z,19.50
2023-01-26T22:43:37.579Z,19.50
2023-01-26T22:46:08.858Z,19.50
2023-01-26T22:48:37.577Z,19.50
2023-01-26T22:51:16.165Z,19.40
2023-01-26T22:53:46.152Z,19.40
2023-01-26T22:56:15.050Z,19.40
2023-01-26T22:58:57.147Z,19.40
2023-01-26T23:01:28.258Z,19.40
2023-01-26T23:03:58.854Z,19.40
2023-01-26T23:06:27.970Z,19.40
2023-01-26T23:08:59.119Z,19.40
2023-01-26T23:11:30.230Z,19.40
2023-01-26T23:14:00.102Z,19.40
2023-01-26T23:16:29.730Z,19.40
2023-01-26T23:19:00.209Z,19.30
2023-01-26T23:21:30.599Z,19.40
2023-01-26T23:23:59.579Z,19.30
2023-01-26T23:26:28.677Z,19.30
2023-01-26T23:28:57.402Z,19.30
2023-01-26T23:31:26.167Z,19.20
2023-01-26T23:33:54.994Z,19.20
2023-01-26T23:36:23.636Z,19.20
2023-01-26T23:38:53.541Z,19.20
2023-01-26T23:41:22.426Z,19.20
2023-01-26T23:43:51.154Z,19.20
2023-01-26T23:46:20.021Z,19.10
2023-01-26T23:48:48.713Z,19.10
2023-01-26T23:51:17.342Z,19.10
2023-01-26T23:53:46.066Z,19.10
2023-01-26T23:56:17.626Z,19.10
2023-01-26T23:58:46.856Z,19.10
